Terminal Aerodrome Forecast
Issued by NWS

Home | Current Version | Previous Version | Text Only | Print | Product List | Glossary On
Versions: 1 2 3 4 5 6 7 8 9 10 11 12 13 14 15 16 17 18 19 20 21 22
000
FTUS43 KGRB 211100
TAFAUW
TAF
KAUW 211122Z 2112/2212 26012G19KT P6SM -SN BKN025 OVC060
      TEMPO 2112/2115 3SM -SN BR BKN015
     FM211500 28015G24KT P6SM -RASN BKN025 OVC040
     FM220100 30009KT P6SM BKN025 BKN060=

USA.gov is the U.S. government's official web portal to all federal, state and local government web resources and services.